Time;durP1;ratioP1;P1;durP2;ratioP2;P2;SDS_P1;SDS_P2;PMS_P1;PMS_P2;Temp;Humidity;BMP_temperature;BMP_pressure;BME280_temperature;BME280_humidity;BME280_pressure;Samples;Min_cycle;Max_cycle;Signal;HPM_P1;HPM_P2
2022/12/20 00:04:04;;;;;;;29.77;19.45;;;;;;;;;;10312062;28;20132;-72
2022/12/20 00:09:04;;;;;;;29.98;20.60;;;;;;;;;;10311132;28;20076;-71
2022/12/20 00:14:03;;;;;;;28.48;18.50;;;;;;;;;;10313544;28;20072;-72
2022/12/20 00:19:03;;;;;;;29.27;18.88;;;;;;;;;;10314041;28;20079;-72
2022/12/20 00:24:01;;;;;;;26.98;18.27;;;;;;;;;;10313066;28;20072;-72
2022/12/20 00:29:00;;;;;;;26.27;18.88;;;;;;;;;;10310079;28;20068;-73
2022/12/20 00:34:00;;;;;;;30.58;19.45;;;;;;;;;;10294372;28;20044;-73
2022/12/20 00:39:00;;;;;;;33.72;21.55;;;;;;;;;;10293540;28;20052;-73
2022/12/20 00:43:58;;;;;;;26.60;18.88;;;;;;;;;;10310831;28;20079;-73
2022/12/20 00:48:56;;;;;;;32.30;21.95;;;;;;;;;;10301008;28;20483;-73
2022/12/20 00:53:56;;;;;;;28.58;18.88;;;;;;;;;;10286643;28;20079;-72
2022/12/20 00:58:57;;;;;;;26.92;17.90;;;;;;;;;;10310737;28;20080;-72
2022/12/20 01:03:56;;;;;;;28.63;19.17;;;;;;;;;;10312144;28;20075;-71
2022/12/20 01:08:54;;;;;;;28.50;18.40;;;;;;;;;;10296728;28;20482;-72
2022/12/20 01:13:55;;;;;;;28.48;19.77;;;;;;;;;;10319935;28;20068;-73
2022/12/20 01:18:54;;;;;;;33.00;20.77;;;;;;;;;;10318285;28;20067;-72
2022/12/20 01:23:52;;;;;;;30.40;18.70;;;;;;;;;;10322519;28;20044;-73
2022/12/20 01:28:52;;;;;;;26.70;17.10;;;;;;;;;;10337524;28;20513;-71
2022/12/20 01:33:52;;;;;;;27.13;17.38;;;;;;;;;;10319287;28;20483;-72
2022/12/20 01:38:50;;;;;;;26.33;18.35;;;;;;;;;;10318610;28;20087;-72
2022/12/20 01:43:50;;;;;;;31.85;20.73;;;;;;;;;;10318370;28;20068;-71
2022/12/20 01:48:49;;;;;;;28.50;16.48;;;;;;;;;;10318264;28;20088;-72
2022/12/20 01:53:51;;;;;;;29.05;19.92;;;;;;;;;;10315250;28;20072;-72
2022/12/20 01:58:51;;;;;;;27.35;18.77;;;;;;;;;;10305371;28;20071;-71
2022/12/20 02:03:51;;;;;;;26.20;18.20;;;;;;;;;;10317005;28;20075;-71
2022/12/20 02:08:51;;;;;;;30.20;19.77;;;;;;;;;;10281580;28;20143;-71
2022/12/20 02:13:56;;;;;;;26.40;16.35;;;;;;;;;;10316514;28;20147;-72
2022/12/20 02:18:59;;;;;;;28.33;17.63;;;;;;;;;;10289071;28;20044;-71
2022/12/20 02:24:19;;;;;;;33.42;19.80;;;;;;;;;;10316087;28;20080;-72
2022/12/20 02:29:23;;;;;;;33.60;19.30;;;;;;;;;;10316695;28;20080;-71
2022/12/20 02:34:28;;;;;;;28.42;17.05;;;;;;;;;;10311099;28;20076;-70
2022/12/20 02:39:28;;;;;;;28.33;17.42;;;;;;;;;;10288239;28;20068;-71
2022/12/20 02:49:47;;;;;;;31.98;20.70;;;;;;;;;;10295511;28;20063;-71
2022/12/20 02:54:45;;;;;;;27.88;17.92;;;;;;;;;;10314459;28;20075;-71
2022/12/20 02:59:48;;;;;;;29.25;18.83;;;;;;;;;;10288737;28;20381;-71
2022/12/20 03:04:48;;;;;;;32.00;18.95;;;;;;;;;;10278487;28;20104;-72
2022/12/20 03:09:46;;;;;;;30.05;18.17;;;;;;;;;;10315701;28;20079;-71
2022/12/20 03:14:45;;;;;;;31.30;21.30;;;;;;;;;;10288352;28;20079;-71
2022/12/20 03:19:45;;;;;;;31.73;20.50;;;;;;;;;;10287244;28;20087;-72
2022/12/20 03:24:44;;;;;;;31.08;20.65;;;;;;;;;;10314171;28;20079;-72
2022/12/20 03:29:44;;;;;;;38.60;21.45;;;;;;;;;;10295422;28;20094;-72
2022/12/20 03:34:43;;;;;;;37.17;22.42;;;;;;;;;;10287541;28;20076;-71
2022/12/20 03:39:42;;;;;;;38.03;21.77;;;;;;;;;;10293542;28;20052;-71
2022/12/20 03:44:42;;;;;;;29.17;19.15;;;;;;;;;;10308007;28;20110;-71
2022/12/20 03:49:43;;;;;;;28.17;18.23;;;;;;;;;;10312052;28;20076;-72
2022/12/20 03:54:41;;;;;;;28.02;19.00;;;;;;;;;;10312012;28;20167;-72
2022/12/20 03:59:45;;;;;;;27.80;19.55;;;;;;;;;;10292080;28;20068;-73
2022/12/20 04:04:45;;;;;;;34.45;21.60;;;;;;;;;;10284964;28;20083;-70
2022/12/20 04:09:45;;;;;;;35.00;20.83;;;;;;;;;;10298668;28;20083;-72
2022/12/20 04:14:46;;;;;;;26.67;18.80;;;;;;;;;;10286526;28;20477;-71
2022/12/20 04:19:45;;;;;;;37.83;21.85;;;;;;;;;;10286606;28;20053;-71
2022/12/20 04:24:44;;;;;;;36.47;23.50;;;;;;;;;;10303014;28;20083;-72
2022/12/20 04:30:04;;;;;;;41.10;23.33;;;;;;;;;;10309834;28;20084;-72
2022/12/20 04:35:03;;;;;;;43.25;24.67;;;;;;;;;;10308468;28;20084;-71
2022/12/20 04:40:09;;;;;;;32.92;20.27;;;;;;;;;;10310159;28;20072;-72
2022/12/20 04:45:18;;;;;;;31.30;19.60;;;;;;;;;;10295780;28;20084;-73
2022/12/20 04:50:17;;;;;;;43.40;27.35;;;;;;;;;;10293721;28;20533;-72
2022/12/20 04:55:17;;;;;;;48.53;29.95;;;;;;;;;;10301940;28;20500;-73
2022/12/20 05:00:16;;;;;;;29.35;19.15;;;;;;;;;;10293147;28;20072;-71
2022/12/20 05:05:20;;;;;;;89.32;55.70;;;;;;;;;;10295116;28;20051;-74
2022/12/20 05:10:22;;;;;;;35.15;22.83;;;;;;;;;;10298358;28;20080;-73
2022/12/20 05:15:22;;;;;;;34.75;20.15;;;;;;;;;;10298493;28;20521;-72
2022/12/20 05:20:23;;;;;;;27.45;18.58;;;;;;;;;;10315348;28;20588;-71
2022/12/20 05:30:40;;;;;;;34.72;21.45;;;;;;;;;;10299628;28;20103;-72
2022/12/20 05:35:41;;;;;;;26.95;17.85;;;;;;;;;;10291736;28;20083;-73
2022/12/20 05:40:43;;;;;;;27.90;18.65;;;;;;;;;;10315327;28;20838;-73
2022/12/20 05:45:45;;;;;;;45.72;25.67;;;;;;;;;;10314608;28;20114;-73
2022/12/20 05:50:46;;;;;;;36.47;24.15;;;;;;;;;;10313940;28;20076;-72
2022/12/20 05:56:11;;;;;;;40.22;25.60;;;;;;;;;;10312137;28;20072;-72
2022/12/20 06:01:10;;;;;;;35.05;22.70;;;;;;;;;;10306917;28;20144;-73
2022/12/20 06:06:10;;;;;;;30.90;19.77;;;;;;;;;;10317388;28;20041;-73
2022/12/20 06:11:14;;;;;;;;;;;;;;;;;;10293288;28;20077;-75
2022/12/20 06:16:24;;;;;;;39.97;24.35;;;;;;;;;;10330739;28;19955;-74
2022/12/20 06:21:27;;;;;;;33.60;20.77;;;;;;;;;;10308589;28;20088;-73
2022/12/20 06:26:35;;;;;;;38.85;25.85;;;;;;;;;;10294680;28;20075;-73
2022/12/20 06:31:35;;;;;;;40.83;26.85;;;;;;;;;;10296443;28;20068;-74
2022/12/20 06:36:35;;;;;;;42.47;27.35;;;;;;;;;;10313077;28;20473;-74
2022/12/20 06:41:39;;;;;;;44.20;27.60;;;;;;;;;;10313334;28;20098;-74
2022/12/20 06:46:38;;;;;;;36.42;25.92;;;;;;;;;;10295804;28;20076;-74
2022/12/20 06:51:41;;;;;;;44.58;26.45;;;;;;;;;;10307874;28;20087;-73
2022/12/20 06:56:41;;;;;;;45.55;27.83;;;;;;;;;;10289674;28;20083;-72
2022/12/20 07:01:42;;;;;;;41.97;28.00;;;;;;;;;;10291353;28;20099;-73
2022/12/20 07:06:41;;;;;;;37.70;26.50;;;;;;;;;;10307122;28;20068;-74
2022/12/20 07:11:42;;;;;;;43.80;28.23;;;;;;;;;;10309623;28;20083;-75
2022/12/20 07:16:42;;;;;;;33.75;21.50;;;;;;;;;;10312360;28;20069;-73
2022/12/20 07:21:42;;;;;;;36.40;23.23;;;;;;;;;;10307298;28;20079;-73
2022/12/20 07:26:40;;;;;;;38.60;22.52;;;;;;;;;;10306796;28;20067;-72
2022/12/20 07:31:42;;;;;;;38.17;23.27;;;;;;;;;;10310741;28;20462;-73
2022/12/20 07:36:42;;;;;;;44.80;28.25;;;;;;;;;;10308614;28;20072;-73
2022/12/20 07:41:43;;;;;;;61.28;37.53;;;;;;;;;;10313676;28;20524;-73
2022/12/20 07:46:46;;;;;;;43.65;27.60;;;;;;;;;;10293873;28;20087;-74
2022/12/20 07:51:48;;;;;;;38.30;23.95;;;;;;;;;;10313069;28;20040;-74
2022/12/20 07:56:55;;;;;;;34.80;23.35;;;;;;;;;;10313102;28;20083;-74
2022/12/20 08:01:54;;;;;;;36.38;24.33;;;;;;;;;;10312502;28;20060;-73
2022/12/20 08:07:02;;;;;;;36.60;23.48;;;;;;;;;;10313286;28;20461;-73
2022/12/20 08:12:01;;;;;;;37.13;24.55;;;;;;;;;;10310246;28;20072;-74
2022/12/20 08:16:59;;;;;;;33.90;22.90;;;;;;;;;;10305137;28;20064;-74
2022/12/20 08:21:57;;;;;;;39.75;26.55;;;;;;;;;;10308047;28;20068;-75
2022/12/20 08:26:59;;;;;;;41.25;26.80;;;;;;;;;;10312620;28;20068;-74
2022/12/20 08:31:57;;;;;;;41.50;24.63;;;;;;;;;;10312908;28;20517;-75
2022/12/20 08:36:55;;;;;;;44.83;27.52;;;;;;;;;;10286918;28;20044;-75
2022/12/20 08:41:54;;;;;;;54.80;31.63;;;;;;;;;;10295288;28;20083;-75
2022/12/20 08:46:57;;;;;;;49.45;32.85;;;;;;;;;;10312745;28;20084;-74
2022/12/20 08:51:58;;;;;;;83.25;56.17;;;;;;;;;;10311052;28;20072;-74
2022/12/20 08:56:56;;;;;;;49.22;32.60;;;;;;;;;;10309465;28;20076;-74
2022/12/20 09:01:56;;;;;;;49.45;29.00;;;;;;;;;;10309286;28;20068;-74
2022/12/20 09:06:55;;;;;;;53.08;30.27;;;;;;;;;;10312371;28;20457;-73
2022/12/20 09:11:54;;;;;;;59.65;39.67;;;;;;;;;;10206811;28;20082;-73
2022/12/20 09:16:55;;;;;;;42.45;27.63;;;;;;;;;;10205783;28;20096;-74
2022/12/20 09:21:55;;;;;;;54.75;29.80;;;;;;;;;;10203354;28;20192;-72
2022/12/20 09:26:53;;;;;;;37.92;25.55;;;;;;;;;;10207021;28;20136;-74
2022/12/20 09:31:51;;;;;;;44.38;27.48;;;;;;;;;;10225043;28;20169;-73
2022/12/20 09:42:24;;;;;;;34.15;22.05;;;;;;;;;;10261035;28;20084;-75
2022/12/20 09:47:24;;;;;;;42.10;26.40;;;;;;;;;;10356823;28;20466;-76
2022/12/20 09:52:34;;;;;;;38.08;24.25;;;;;;;;;;10364447;28;20029;-75
2022/12/20 09:57:46;;;;;;;38.13;25.35;;;;;;;;;;10293095;28;20071;-73
2022/12/20 10:02:45;;;;;;;34.33;25.58;;;;;;;;;;10317575;28;20060;-74
2022/12/20 10:08:08;;;;;;;36.55;24.33;;;;;;;;;;10316142;28;20082;-75
2022/12/20 10:13:15;;;;;;;38.33;24.52;;;;;;;;;;10320174;28;20064;-74
2022/12/20 10:18:23;;;;;;;33.88;22.40;;;;;;;;;;10343354;28;20040;-75
2022/12/20 10:23:25;;;;;;;41.60;27.33;;;;;;;;;;10315373;28;20061;-74
2022/12/20 10:28:35;;;;;;;46.10;30.50;;;;;;;;;;10315567;28;20044;-73
2022/12/20 10:33:34;;;;;;;40.63;26.92;;;;;;;;;;10318271;28;20048;-76
2022/12/20 10:38:43;;;;;;;41.63;28.10;;;;;;;;;;10315645;28;20040;-75
2022/12/20 10:43:46;;;;;;;43.25;28.85;;;;;;;;;;10314195;28;20072;-74
2022/12/20 10:48:45;;;;;;;42.30;27.08;;;;;;;;;;10316823;28;20088;-75
2022/12/20 10:53:51;;;;;;;42.10;28.17;;;;;;;;;;10322421;28;20061;-75
2022/12/20 10:58:59;;;;;;;35.38;24.05;;;;;;;;;;10312487;28;20096;-75
2022/12/20 11:04:04;;;;;;;38.42;27.30;;;;;;;;;;10313511;28;20087;-74
2022/12/20 11:09:23;;;;;;;41.72;27.83;;;;;;;;;;10308983;28;20088;-74
2022/12/20 11:14:23;;;;;;;45.95;30.17;;;;;;;;;;10302584;28;20080;-73
2022/12/20 11:19:30;;;;;;;45.42;28.83;;;;;;;;;;10311785;28;20091;-74
2022/12/20 11:24:33;;;;;;;57.38;36.67;;;;;;;;;;10312321;28;20068;-74
2022/12/20 11:29:49;;;;;;;39.78;27.17;;;;;;;;;;10313085;28;20079;-74
2022/12/20 11:34:54;;;;;;;42.95;29.08;;;;;;;;;;10310723;28;20548;-74
2022/12/20 11:40:04;;;;;;;44.22;28.08;;;;;;;;;;10312783;28;20087;-75
2022/12/20 11:45:12;;;;;;;47.22;30.67;;;;;;;;;;10311064;28;20094;-73
2022/12/20 11:50:20;;;;;;;156.15;53.25;;;;;;;;;;10309374;28;20079;-72
2022/12/20 11:55:21;;;;;;;38.63;28.23;;;;;;;;;;10310561;28;20078;-73
2022/12/20 12:00:23;;;;;;;45.50;29.10;;;;;;;;;;10293369;28;20068;-73
2022/12/20 12:05:23;;;;;;;63.40;38.83;;;;;;;;;;10309381;28;20067;-73
2022/12/20 12:10:26;;;;;;;55.78;35.28;;;;;;;;;;10308924;28;20396;-73
2022/12/20 12:15:30;;;;;;;98.03;54.88;;;;;;;;;;10307045;28;20079;-73
2022/12/20 12:20:33;;;;;;;53.95;29.85;;;;;;;;;;10309253;28;20068;-73
2022/12/20 12:25:31;;;;;;;46.05;31.20;;;;;;;;;;10310268;28;20075;-74
2022/12/20 12:30:36;;;;;;;56.70;34.70;;;;;;;;;;10310728;28;20533;-74
2022/12/20 12:35:44;;;;;;;50.70;33.50;;;;;;;;;;10309343;28;20120;-74
2022/12/20 12:40:55;;;;;;;47.60;30.83;;;;;;;;;;10312382;28;20076;-74
2022/12/20 12:45:58;;;;;;;53.63;33.13;;;;;;;;;;10311797;28;20068;-75
2022/12/20 12:50:57;;;;;;;59.25;35.95;;;;;;;;;;10312862;28;20160;-75
2022/12/20 12:55:56;;;;;;;60.17;37.38;;;;;;;;;;10312832;28;20068;-73
2022/12/20 13:01:12;;;;;;;119.40;73.10;;;;;;;;;;10311437;28;20079;-76
2022/12/20 13:06:28;;;;;;;65.93;42.58;;;;;;;;;;10318819;28;20080;-74
2022/12/20 13:11:29;;;;;;;65.72;42.35;;;;;;;;;;10318491;28;20098;-74
2022/12/20 13:16:30;;;;;;;73.05;42.45;;;;;;;;;;10314013;28;20072;-75
2022/12/20 13:21:53;;;;;;;68.13;42.30;;;;;;;;;;10298190;28;20506;-74
2022/12/20 13:26:53;;;;;;;;;;;;;;;;;;10319161;28;20084;-74
2022/12/20 13:31:53;;;;;;;60.50;37.80;;;;;;;;;;10318187;28;19963;-74
2022/12/20 13:36:58;;;;;;;65.80;40.75;;;;;;;;;;10317929;28;20153;-74
2022/12/20 13:42:07;;;;;;;78.93;48.20;;;;;;;;;;10317359;28;20505;-75
2022/12/20 13:47:23;;;;;;;68.90;38.08;;;;;;;;;;10309312;28;20322;-74
2022/12/20 13:52:24;;;;;;;85.28;55.13;;;;;;;;;;10299271;28;20072;-74
2022/12/20 13:57:26;;;;;;;59.58;36.45;;;;;;;;;;10315083;28;20103;-74
2022/12/20 14:02:27;;;;;;;79.32;44.45;;;;;;;;;;10317776;28;20080;-73
2022/12/20 14:07:27;;;;;;;72.00;46.65;;;;;;;;;;10316658;28;20076;-73
2022/12/20 14:12:26;;;;;;;67.72;41.10;;;;;;;;;;10316409;28;20072;-73
2022/12/20 14:17:34;;;;;;;137.93;86.43;;;;;;;;;;10315848;28;20087;-74
2022/12/20 14:22:42;;;;;;;62.05;39.72;;;;;;;;;;10315468;28;20083;-74
2022/12/20 14:27:41;;;;;;;73.32;41.50;;;;;;;;;;10295271;28;20076;-73
2022/12/20 14:32:48;;;;;;;89.25;56.63;;;;;;;;;;10315244;28;20068;-75
2022/12/20 14:37:52;;;;;;;83.00;52.55;;;;;;;;;;10315568;28;20071;-68
2022/12/20 14:42:51;;;;;;;118.35;75.05;;;;;;;;;;10310300;28;20080;-67
2022/12/20 14:47:54;;;;;;;97.20;62.28;;;;;;;;;;10312974;28;20070;-73
2022/12/20 14:52:52;;;;;;;148.57;88.45;;;;;;;;;;10311509;28;20059;-69
2022/12/20 14:57:51;;;;;;;91.18;52.63;;;;;;;;;;10295285;28;20083;-63
2022/12/20 15:02:52;;;;;;;83.70;51.05;;;;;;;;;;10313983;28;20493;-64
2022/12/20 15:07:50;;;;;;;82.82;50.78;;;;;;;;;;10317966;28;20041;-64
2022/12/20 15:12:49;;;;;;;84.15;49.40;;;;;;;;;;10318665;28;20056;-64
2022/12/20 15:17:47;;;;;;;106.80;61.10;;;;;;;;;;10316695;28;20064;-63
2022/12/20 15:22:47;;;;;;;91.78;59.72;;;;;;;;;;10315279;28;20075;-65
2022/12/20 15:27:45;;;;;;;98.88;67.88;;;;;;;;;;10316492;28;20036;-64
2022/12/20 15:32:43;;;;;;;113.97;64.53;;;;;;;;;;10297933;28;20048;-64
2022/12/20 15:37:54;;;;;;;69.88;43.30;;;;;;;;;;10315699;28;20496;-64
2022/12/20 15:42:52;;;;;;;138.98;90.40;;;;;;;;;;10309926;28;20063;-64
2022/12/20 15:47:50;;;;;;;69.75;45.45;;;;;;;;;;10310941;28;20091;-62
2022/12/20 15:52:48;;;;;;;107.75;67.93;;;;;;;;;;10308414;28;20079;-64
2022/12/20 15:57:48;;;;;;;85.43;52.08;;;;;;;;;;10303449;28;20080;-62
2022/12/20 16:02:49;;;;;;;58.53;41.50;;;;;;;;;;10301209;28;20072;-67
2022/12/20 16:07:48;;;;;;;59.40;39.60;;;;;;;;;;10303395;28;20502;-67
2022/12/20 16:12:46;;;;;;;56.10;35.63;;;;;;;;;;10308998;28;20064;-68
2022/12/20 16:17:46;;;;;;;66.22;42.83;;;;;;;;;;10307447;28;20071;-66
2022/12/20 16:22:44;;;;;;;95.50;63.97;;;;;;;;;;10306795;28;20520;-66
2022/12/20 16:27:42;;;;;;;81.93;52.72;;;;;;;;;;10304570;28;20780;-66
2022/12/20 16:32:41;;;;;;;71.68;47.97;;;;;;;;;;10298434;28;20068;-66
2022/12/20 16:37:40;;;;;;;80.22;50.65;;;;;;;;;;10316609;28;20076;-65
2022/12/20 16:42:39;;;;;;;72.88;45.33;;;;;;;;;;10300798;28;20086;-65
2022/12/20 16:47:38;;;;;;;74.13;48.83;;;;;;;;;;10291485;28;20076;-67
2022/12/20 16:52:36;;;;;;;64.38;42.65;;;;;;;;;;10312983;28;20066;-67
2022/12/20 16:57:36;;;;;;;76.05;49.33;;;;;;;;;;10306530;28;20076;-66
2022/12/20 17:02:34;;;;;;;75.05;46.90;;;;;;;;;;10315634;28;20080;-66
2022/12/20 17:07:33;;;;;;;81.63;52.80;;;;;;;;;;10299322;28;20772;-67
2022/12/20 17:12:40;;;;;;;82.55;52.60;;;;;;;;;;10309660;28;20073;-67
2022/12/20 17:17:38;;;;;;;95.85;59.95;;;;;;;;;;10310906;28;20077;-71
2022/12/20 17:22:36;;;;;;;94.32;55.78;;;;;;;;;;10310476;28;20072;-66
2022/12/20 17:27:54;;;;;;;100.22;64.72;;;;;;;;;;10317700;28;20075;-66
2022/12/20 17:32:53;;;;;;;99.35;62.22;;;;;;;;;;10314004;28;20064;-66
2022/12/20 17:37:54;;;;;;;74.35;53.22;;;;;;;;;;10314068;28;20498;-66
2022/12/20 17:42:54;;;;;;;67.03;46.83;;;;;;;;;;10310501;28;20461;-66
2022/12/20 17:47:53;;;;;;;60.22;40.70;;;;;;;;;;10313047;28;20083;-66
2022/12/20 17:52:53;;;;;;;60.47;40.53;;;;;;;;;;10310877;28;20067;-65
2022/12/20 17:57:52;;;;;;;64.57;42.40;;;;;;;;;;10290843;28;20513;-64
2022/12/20 18:02:52;;;;;;;73.95;42.90;;;;;;;;;;10317319;28;20064;-65
2022/12/20 18:07:52;;;;;;;72.97;52.10;;;;;;;;;;10312694;28;20071;-65
2022/12/20 18:12:50;;;;;;;58.47;38.30;;;;;;;;;;10273534;28;20142;-64
2022/12/20 18:17:48;;;;;;;67.60;44.90;;;;;;;;;;10312273;28;20074;-66
2022/12/20 18:22:48;;;;;;;71.53;43.50;;;;;;;;;;10331583;28;20076;-66
2022/12/20 18:27:46;;;;;;;67.68;41.58;;;;;;;;;;10313709;28;20060;-66
2022/12/20 18:32:45;;;;;;;65.30;42.42;;;;;;;;;;10306433;28;20569;-65
2022/12/20 18:37:43;;;;;;;72.53;41.17;;;;;;;;;;10305546;28;20136;-66
2022/12/20 18:42:43;;;;;;;75.57;41.60;;;;;;;;;;10311904;28;20064;-65
2022/12/20 18:47:42;;;;;;;80.30;46.92;;;;;;;;;;10304465;28;20080;-66
2022/12/20 18:52:41;;;;;;;129.18;69.20;;;;;;;;;;10296223;28;20147;-66
2022/12/20 18:57:45;;;;;;;73.93;49.47;;;;;;;;;;10298312;28;21693;-65
2022/12/20 19:02:44;;;;;;;74.78;49.92;;;;;;;;;;10303936;28;20394;-65
2022/12/20 19:07:42;;;;;;;69.03;45.20;;;;;;;;;;10315058;28;20068;-65
2022/12/20 19:12:40;;;;;;;66.85;43.15;;;;;;;;;;10307441;28;20074;-64
2022/12/20 19:17:40;;;;;;;71.38;43.92;;;;;;;;;;10301234;28;20073;-66
2022/12/20 19:22:40;;;;;;;62.13;37.72;;;;;;;;;;10308397;28;20080;-67
2022/12/20 19:27:39;;;;;;;63.28;40.83;;;;;;;;;;10304596;28;20498;-64
2022/12/20 19:32:37;;;;;;;57.90;37.80;;;;;;;;;;10305608;28;20156;-65
2022/12/20 19:37:38;;;;;;;57.03;33.67;;;;;;;;;;10310893;28;20083;-64
2022/12/20 19:42:36;;;;;;;57.28;35.67;;;;;;;;;;10310102;28;20060;-68
2022/12/20 19:47:35;;;;;;;68.28;43.47;;;;;;;;;;10313562;28;20080;-66
2022/12/20 19:52:33;;;;;;;63.40;37.20;;;;;;;;;;10318699;28;20434;-66
2022/12/20 19:57:33;;;;;;;67.60;38.53;;;;;;;;;;10315847;28;20083;-67
2022/12/20 20:02:31;;;;;;;87.32;49.58;;;;;;;;;;10315404;28;20056;-66
2022/12/20 20:07:30;;;;;;;74.13;43.45;;;;;;;;;;10315450;28;20083;-66
2022/12/20 20:12:28;;;;;;;63.85;38.92;;;;;;;;;;10315542;28;20064;-68
2022/12/20 20:17:28;;;;;;;68.15;38.38;;;;;;;;;;10316428;28;20520;-68
2022/12/20 20:22:26;;;;;;;65.03;37.35;;;;;;;;;;10313154;28;20083;-67
2022/12/20 20:27:24;;;;;;;97.60;57.38;;;;;;;;;;10311954;28;20521;-67
2022/12/20 20:32:22;;;;;;;125.97;71.07;;;;;;;;;;10310509;28;20060;-67
2022/12/20 20:37:22;;;;;;;146.85;78.53;;;;;;;;;;10310829;28;20079;-67
2022/12/20 20:42:20;;;;;;;94.65;51.67;;;;;;;;;;10312948;28;20087;-65
2022/12/20 20:47:20;;;;;;;266.27;122.55;;;;;;;;;;10312828;28;20092;-66
2022/12/20 20:52:19;;;;;;;170.82;81.57;;;;;;;;;;10313044;28;20068;-67
2022/12/20 20:57:19;;;;;;;160.48;78.97;;;;;;;;;;10312603;28;20080;-65
2022/12/20 21:02:19;;;;;;;128.82;68.30;;;;;;;;;;10313655;28;20047;-66
2022/12/20 21:07:18;;;;;;;133.75;75.53;;;;;;;;;;10310746;28;20067;-66
2022/12/20 21:12:16;;;;;;;180.35;90.63;;;;;;;;;;10313447;28;20068;-66
2022/12/20 21:17:16;;;;;;;189.52;82.30;;;;;;;;;;10311753;28;20083;-66
2022/12/20 21:22:14;;;;;;;102.90;55.25;;;;;;;;;;10313725;28;20067;-66
2022/12/20 21:27:13;;;;;;;253.43;105.00;;;;;;;;;;10317324;28;20085;-67
2022/12/20 21:32:11;;;;;;;95.70;50.53;;;;;;;;;;10317159;28;20068;-66
2022/12/20 21:37:10;;;;;;;95.28;50.45;;;;;;;;;;10318750;28;20450;-66
2022/12/20 21:42:08;;;;;;;161.32;86.88;;;;;;;;;;10320264;28;20064;-65
2022/12/20 21:47:07;;;;;;;67.20;39.35;;;;;;;;;;10317292;28;20492;-67
2022/12/20 21:52:05;;;;;;;146.38;63.45;;;;;;;;;;10319271;28;20083;-66
2022/12/20 21:57:05;;;;;;;116.07;55.05;;;;;;;;;;10300812;28;20063;-66
2022/12/20 22:02:03;;;;;;;90.18;50.90;;;;;;;;;;10318552;28;20068;-64
2022/12/20 22:07:02;;;;;;;79.97;44.55;;;;;;;;;;10319109;28;20068;-66
2022/12/20 22:12:00;;;;;;;69.95;42.13;;;;;;;;;;10316073;28;20067;-65
2022/12/20 22:16:59;;;;;;;69.63;39.28;;;;;;;;;;10311027;28;20048;-65
2022/12/20 22:21:58;;;;;;;73.68;39.58;;;;;;;;;;10318456;28;20060;-65
2022/12/20 22:26:56;;;;;;;64.18;37.05;;;;;;;;;;10317829;28;20071;-65
2022/12/20 22:31:54;;;;;;;73.60;46.70;;;;;;;;;;10315405;28;20068;-65
2022/12/20 22:36:54;;;;;;;55.25;31.95;;;;;;;;;;10315705;28;20071;-65
2022/12/20 22:41:52;;;;;;;58.78;33.47;;;;;;;;;;10318115;28;20110;-65
2022/12/20 22:46:50;;;;;;;61.55;35.72;;;;;;;;;;10317979;28;20694;-64
2022/12/20 22:51:48;;;;;;;78.47;43.80;;;;;;;;;;10317534;28;20536;-65
2022/12/20 22:57:04;;;;;;;59.37;34.13;;;;;;;;;;10318878;28;20480;-65
2022/12/20 23:02:03;;;;;;;56.70;34.88;;;;;;;;;;10317900;28;20175;-67
2022/12/20 23:07:02;;;;;;;41.85;24.33;;;;;;;;;;10317445;28;20074;-66
2022/12/20 23:17:17;;;;;;;30.65;20.52;;;;;;;;;;10317133;28;20081;-65
2022/12/20 23:27:31;;;;;;;;;;;;;;;;;;10318290;28;20079;-66
2022/12/20 23:32:30;;;;;;;46.10;25.13;;;;;;;;;;10317012;28;19960;-65
2022/12/20 23:37:29;;;;;;;47.42;27.70;;;;;;;;;;10317473;28;20041;-67
2022/12/20 23:42:28;;;;;;;44.65;26.17;;;;;;;;;;10316395;28;20089;-66
2022/12/20 23:47:26;;;;;;;42.60;26.35;;;;;;;;;;10315838;28;20052;-66
2022/12/20 23:52:25;;;;;;;48.38;27.67;;;;;;;;;;10316786;28;20083;-66
2022/12/20 23:57:23;;;;;;;43.28;25.73;;;;;;;;;;10304948;28;20076;-66
